Terminal Aerodrome Forecast
Issued by NWS North Platte, NE

Home | Current Version | Previous Version | Graphics & Text | Print | Product List | Glossary On
Versions: 1 2 3 4 5 6 7 8 9 10 11 12 13 14 15 16 17 18 19 20 21 22 23 24 25 26 27 28
914
FTUS43 KLBF 232036 AAA
TAFVTN
TAF AMD
KVTN 232036Z 2321/2418 01010KT 1SM -RA BR VCTS SCT005 OVC011CB
     FM240000 02008KT 1 1/2SM SHRA OVC008
     FM240300 02006KT 2SM SHRA OVC003
     FM241200 34007KT 3SM SHRA OVC003
     FM241700 33009KT 6SM SHRA OVC008=

USA.gov is the U.S. government's official web portal to all federal, state and local government web resources and services.